sensor_id;sensor_type;location;lat;lon;timestamp;P1;durP1;ratioP1;P2;durP2;ratioP2
10142;SDS011;5112;54.088;13.446;2022-12-05T00:03:05;37.70;;;21.63;;
10142;SDS011;5112;54.088;13.446;2022-12-05T00:13:07;41.10;;;21.47;;
10142;SDS011;5112;54.088;13.446;2022-12-05T00:23:10;40.17;;;20.77;;
10142;SDS011;5112;54.088;13.446;2022-12-05T00:33:12;39.30;;;22.03;;
10142;SDS011;5112;54.088;13.446;2022-12-05T00:43:15;34.80;;;21.70;;
10142;SDS011;5112;54.088;13.446;2022-12-05T00:53:17;36.77;;;22.60;;
10142;SDS011;5112;54.088;13.446;2022-12-05T01:03:20;36.90;;;22.73;;
10142;SDS011;5112;54.088;13.446;2022-12-05T01:13:21;39.93;;;21.97;;
10142;SDS011;5112;54.088;13.446;2022-12-05T01:23:25;42.40;;;23.93;;
10142;SDS011;5112;54.088;13.446;2022-12-05T01:33:27;46.33;;;23.63;;
10142;SDS011;5112;54.088;13.446;2022-12-05T01:43:30;42.10;;;22.30;;
10142;SDS011;5112;54.088;13.446;2022-12-05T01:53:32;39.63;;;22.63;;
10142;SDS011;5112;54.088;13.446;2022-12-05T02:03:35;43.13;;;24.13;;
10142;SDS011;5112;54.088;13.446;2022-12-05T02:13:51;43.13;;;22.70;;
10142;SDS011;5112;54.088;13.446;2022-12-05T02:34:54;43.47;;;23.53;;
10142;SDS011;5112;54.088;13.446;2022-12-05T02:45:00;39.93;;;23.33;;
10142;SDS011;5112;54.088;13.446;2022-12-05T02:55:07;38.23;;;22.70;;
10142;SDS011;5112;54.088;13.446;2022-12-05T03:05:13;39.90;;;22.47;;
10142;SDS011;5112;54.088;13.446;2022-12-05T03:15:23;41.93;;;23.13;;
10142;SDS011;5112;54.088;13.446;2022-12-05T03:25:29;46.60;;;23.63;;
10142;SDS011;5112;54.088;13.446;2022-12-05T03:35:39;38.57;;;22.63;;
10142;SDS011;5112;54.088;13.446;2022-12-05T03:45:45;44.53;;;23.20;;
10142;SDS011;5112;54.088;13.446;2022-12-05T03:55:53;40.47;;;22.67;;
10142;SDS011;5112;54.088;13.446;2022-12-05T04:06:00;37.90;;;22.33;;
10142;SDS011;5112;54.088;13.446;2022-12-05T04:16:08;36.80;;;21.23;;
10142;SDS011;5112;54.088;13.446;2022-12-05T04:26:32;41.53;;;22.27;;
10142;SDS011;5112;54.088;13.446;2022-12-05T04:36:38;44.90;;;23.00;;
10142;SDS011;5112;54.088;13.446;2022-12-05T04:46:43;36.43;;;21.37;;
10142;SDS011;5112;54.088;13.446;2022-12-05T04:56:49;43.30;;;23.70;;
10142;SDS011;5112;54.088;13.446;2022-12-05T05:06:55;47.47;;;24.23;;
10142;SDS011;5112;54.088;13.446;2022-12-05T05:16:58;44.33;;;24.90;;
10142;SDS011;5112;54.088;13.446;2022-12-05T05:26:59;53.40;;;25.27;;
10142;SDS011;5112;54.088;13.446;2022-12-05T05:37:02;51.47;;;25.20;;
10142;SDS011;5112;54.088;13.446;2022-12-05T05:47:04;51.63;;;25.90;;
10142;SDS011;5112;54.088;13.446;2022-12-05T05:57:07;50.40;;;24.27;;
10142;SDS011;5112;54.088;13.446;2022-12-05T06:07:09;48.20;;;26.00;;
10142;SDS011;5112;54.088;13.446;2022-12-05T06:17:12;49.93;;;24.87;;
10142;SDS011;5112;54.088;13.446;2022-12-05T06:27:13;53.57;;;31.90;;
10142;SDS011;5112;54.088;13.446;2022-12-05T06:37:16;50.43;;;25.80;;
10142;SDS011;5112;54.088;13.446;2022-12-05T06:47:18;51.90;;;25.27;;
10142;SDS011;5112;54.088;13.446;2022-12-05T06:57:21;47.83;;;24.20;;
10142;SDS011;5112;54.088;13.446;2022-12-05T07:07:22;46.93;;;23.53;;
10142;SDS011;5112;54.088;13.446;2022-12-05T07:17:26;43.17;;;21.90;;
10142;SDS011;5112;54.088;13.446;2022-12-05T07:27:29;39.83;;;21.03;;
10142;SDS011;5112;54.088;13.446;2022-12-05T07:37:32;35.67;;;19.73;;
10142;SDS011;5112;54.088;13.446;2022-12-05T07:47:33;37.67;;;19.83;;
10142;SDS011;5112;54.088;13.446;2022-12-05T07:57:36;41.83;;;22.07;;
10142;SDS011;5112;54.088;13.446;2022-12-05T08:07:38;38.93;;;21.60;;
10142;SDS011;5112;54.088;13.446;2022-12-05T08:17:41;38.23;;;20.57;;
10142;SDS011;5112;54.088;13.446;2022-12-05T08:27:43;37.97;;;19.03;;
10142;SDS011;5112;54.088;13.446;2022-12-05T08:37:46;31.27;;;17.93;;
10142;SDS011;5112;54.088;13.446;2022-12-05T08:47:47;27.63;;;16.03;;
10142;SDS011;5112;54.088;13.446;2022-12-05T08:57:50;24.10;;;15.07;;
10142;SDS011;5112;54.088;13.446;2022-12-05T09:07:52;27.57;;;16.63;;
10142;SDS011;5112;54.088;13.446;2022-12-05T09:17:55;33.30;;;17.47;;
10142;SDS011;5112;54.088;13.446;2022-12-05T09:27:57;27.00;;;16.60;;
10142;SDS011;5112;54.088;13.446;2022-12-05T09:38:00;27.87;;;15.70;;
10142;SDS011;5112;54.088;13.446;2022-12-05T09:48:04;27.90;;;17.03;;
10142;SDS011;5112;54.088;13.446;2022-12-05T09:58:13;33.77;;;18.03;;
10142;SDS011;5112;54.088;13.446;2022-12-05T10:08:22;32.60;;;19.00;;
10142;SDS011;5112;54.088;13.446;2022-12-05T10:18:31;34.37;;;18.43;;
10142;SDS011;5112;54.088;13.446;2022-12-05T10:28:39;35.30;;;19.77;;
10142;SDS011;5112;54.088;13.446;2022-12-05T10:38:48;39.27;;;24.00;;
10142;SDS011;5112;54.088;13.446;2022-12-05T10:48:50;31.50;;;18.10;;
10142;SDS011;5112;54.088;13.446;2022-12-05T10:58:54;30.27;;;20.63;;
10142;SDS011;5112;54.088;13.446;2022-12-05T11:08:57;29.30;;;17.60;;
10142;SDS011;5112;54.088;13.446;2022-12-05T11:19:18;26.20;;;16.20;;
10142;SDS011;5112;54.088;13.446;2022-12-05T11:29:27;24.87;;;15.33;;
10142;SDS011;5112;54.088;13.446;2022-12-05T11:39:31;18.07;;;11.43;;
10142;SDS011;5112;54.088;13.446;2022-12-05T11:49:38;19.53;;;13.03;;
10142;SDS011;5112;54.088;13.446;2022-12-05T12:00:02;17.40;;;12.63;;
10142;SDS011;5112;54.088;13.446;2022-12-05T12:10:15;15.20;;;11.30;;
10142;SDS011;5112;54.088;13.446;2022-12-05T12:20:26;13.00;;;9.80;;
10142;SDS011;5112;54.088;13.446;2022-12-05T12:30:44;15.63;;;9.63;;
10142;SDS011;5112;54.088;13.446;2022-12-05T12:41:00;11.83;;;9.37;;
10142;SDS011;5112;54.088;13.446;2022-12-05T12:51:09;12.97;;;9.70;;
10142;SDS011;5112;54.088;13.446;2022-12-05T13:01:18;14.43;;;10.03;;
10142;SDS011;5112;54.088;13.446;2022-12-05T13:11:27;13.13;;;8.67;;
10142;SDS011;5112;54.088;13.446;2022-12-05T13:21:36;11.97;;;8.87;;
10142;SDS011;5112;54.088;13.446;2022-12-05T13:31:38;13.70;;;9.63;;
10142;SDS011;5112;54.088;13.446;2022-12-05T13:41:43;11.43;;;8.80;;
10142;SDS011;5112;54.088;13.446;2022-12-05T13:52:05;12.13;;;8.93;;
10142;SDS011;5112;54.088;13.446;2022-12-05T14:12:53;11.27;;;9.47;;
10142;SDS011;5112;54.088;13.446;2022-12-05T14:23:00;21.60;;;16.20;;
10142;SDS011;5112;54.088;13.446;2022-12-05T14:33:12;14.23;;;9.50;;
10142;SDS011;5112;54.088;13.446;2022-12-05T14:43:18;15.10;;;10.53;;
10142;SDS011;5112;54.088;13.446;2022-12-05T14:53:29;12.47;;;9.00;;
10142;SDS011;5112;54.088;13.446;2022-12-05T15:03:36;18.17;;;13.27;;
10142;SDS011;5112;54.088;13.446;2022-12-05T15:13:40;17.10;;;11.10;;
10142;SDS011;5112;54.088;13.446;2022-12-05T15:23:45;14.47;;;11.03;;
10142;SDS011;5112;54.088;13.446;2022-12-05T15:33:48;12.77;;;9.43;;
10142;SDS011;5112;54.088;13.446;2022-12-05T15:43:55;13.30;;;10.17;;
10142;SDS011;5112;54.088;13.446;2022-12-05T15:53:59;16.40;;;10.73;;
10142;SDS011;5112;54.088;13.446;2022-12-05T16:04:12;13.93;;;9.93;;
10142;SDS011;5112;54.088;13.446;2022-12-05T16:14:19;12.90;;;8.77;;
10142;SDS011;5112;54.088;13.446;2022-12-05T16:24:27;13.23;;;9.93;;
10142;SDS011;5112;54.088;13.446;2022-12-05T16:34:31;13.77;;;10.57;;
10142;SDS011;5112;54.088;13.446;2022-12-05T16:55:02;15.63;;;10.57;;
10142;SDS011;5112;54.088;13.446;2022-12-05T17:05:10;16.53;;;11.10;;
10142;SDS011;5112;54.088;13.446;2022-12-05T17:15:14;15.80;;;11.03;;
10142;SDS011;5112;54.088;13.446;2022-12-05T17:25:19;19.37;;;12.93;;
10142;SDS011;5112;54.088;13.446;2022-12-05T17:35:30;17.87;;;12.50;;
10142;SDS011;5112;54.088;13.446;2022-12-05T17:45:33;15.80;;;10.27;;
10142;SDS011;5112;54.088;13.446;2022-12-05T17:55:35;15.47;;;10.53;;
10142;SDS011;5112;54.088;13.446;2022-12-05T18:05:38;15.93;;;11.03;;
10142;SDS011;5112;54.088;13.446;2022-12-05T18:15:40;15.57;;;10.40;;
10142;SDS011;5112;54.088;13.446;2022-12-05T18:25:43;16.70;;;10.50;;
10142;SDS011;5112;54.088;13.446;2022-12-05T18:35:46;15.27;;;10.60;;
10142;SDS011;5112;54.088;13.446;2022-12-05T18:45:54;14.70;;;8.97;;
10142;SDS011;5112;54.088;13.446;2022-12-05T18:56:00;13.57;;;9.10;;
10142;SDS011;5112;54.088;13.446;2022-12-05T19:06:11;13.83;;;8.43;;
10142;SDS011;5112;54.088;13.446;2022-12-05T19:16:13;11.57;;;8.17;;
10142;SDS011;5112;54.088;13.446;2022-12-05T19:26:18;11.40;;;8.47;;
10142;SDS011;5112;54.088;13.446;2022-12-05T19:36:21;11.87;;;8.37;;
10142;SDS011;5112;54.088;13.446;2022-12-05T19:46:27;11.80;;;8.87;;
10142;SDS011;5112;54.088;13.446;2022-12-05T19:56:30;11.10;;;7.10;;
10142;SDS011;5112;54.088;13.446;2022-12-05T20:06:35;11.10;;;7.63;;
10142;SDS011;5112;54.088;13.446;2022-12-05T20:16:37;11.93;;;8.20;;
10142;SDS011;5112;54.088;13.446;2022-12-05T20:26:42;11.10;;;8.07;;
10142;SDS011;5112;54.088;13.446;2022-12-05T20:36:44;14.50;;;9.07;;
10142;SDS011;5112;54.088;13.446;2022-12-05T20:46:48;13.77;;;8.43;;
10142;SDS011;5112;54.088;13.446;2022-12-05T20:56:50;11.63;;;8.70;;
10142;SDS011;5112;54.088;13.446;2022-12-05T21:06:53;16.23;;;10.23;;
10142;SDS011;5112;54.088;13.446;2022-12-05T21:16:56;16.10;;;10.30;;
10142;SDS011;5112;54.088;13.446;2022-12-05T21:26:59;16.13;;;9.53;;
10142;SDS011;5112;54.088;13.446;2022-12-05T21:37:01;16.90;;;11.00;;
10142;SDS011;5112;54.088;13.446;2022-12-05T21:47:04;15.27;;;9.93;;
10142;SDS011;5112;54.088;13.446;2022-12-05T21:57:06;15.93;;;10.00;;
10142;SDS011;5112;54.088;13.446;2022-12-05T22:07:09;16.63;;;11.27;;
10142;SDS011;5112;54.088;13.446;2022-12-05T22:17:10;16.80;;;10.93;;
10142;SDS011;5112;54.088;13.446;2022-12-05T22:27:13;16.90;;;10.93;;
10142;SDS011;5112;54.088;13.446;2022-12-05T22:37:15;14.80;;;10.53;;
10142;SDS011;5112;54.088;13.446;2022-12-05T22:47:18;16.33;;;10.73;;
10142;SDS011;5112;54.088;13.446;2022-12-05T22:57:20;15.70;;;10.33;;
10142;SDS011;5112;54.088;13.446;2022-12-05T23:07:23;14.53;;;10.57;;
10142;SDS011;5112;54.088;13.446;2022-12-05T23:17:24;16.63;;;10.27;;
10142;SDS011;5112;54.088;13.446;2022-12-05T23:27:27;15.37;;;10.43;;
10142;SDS011;5112;54.088;13.446;2022-12-05T23:37:29;13.93;;;9.70;;
10142;SDS011;5112;54.088;13.446;2022-12-05T23:47:32;14.00;;;10.20;;
10142;SDS011;5112;54.088;13.446;2022-12-05T23:57:33;14.50;;;10.40;;
